createdAt,value
2022-08-22T00:01:10.926Z,8.03
2022-08-22T00:02:44.021Z,4.43
2022-08-22T00:02:46.509Z,5.33
2022-08-22T00:03:02.739Z,5.67
2022-08-22T00:04:26.110Z,7.32
2022-08-22T00:07:41.125Z,7.95
2022-08-22T00:11:02.668Z,6.95
2022-08-22T00:14:32.356Z,7.97
2022-08-22T00:17:55.888Z,8.63
2022-08-22T00:21:32.629Z,8.40
2022-08-22T00:24:50.580Z,8.20
2022-08-22T00:28:32.881Z,9.45
2022-08-22T00:31:42.585Z,9.30
2022-08-22T00:35:05.803Z,8.70
2022-08-22T00:38:29.439Z,9.13
2022-08-22T00:41:35.733Z,8.52
2022-08-22T00:45:03.140Z,7.57
2022-08-22T00:48:28.037Z,7.90
2022-08-22T00:51:56.267Z,7.63
2022-08-22T00:55:14.283Z,7.28
2022-08-22T00:58:47.917Z,7.03
2022-08-22T01:02:11.006Z,7.00
2022-08-22T01:05:50.331Z,8.43
2022-08-22T01:09:07.357Z,8.30
2022-08-22T01:12:19.263Z,8.93
2022-08-22T01:15:26.805Z,8.23
2022-08-22T01:18:32.759Z,7.97
2022-08-22T01:21:59.045Z,8.17
2022-08-22T01:25:25.779Z,8.03
2022-08-22T01:28:47.939Z,8.13
2022-08-22T01:32:03.062Z,8.65
2022-08-22T01:35:47.960Z,9.02
2022-08-22T01:39:15.825Z,8.67
2022-08-22T01:42:32.467Z,8.57
2022-08-22T01:45:55.872Z,8.15
2022-08-22T01:49:13.784Z,7.75
2022-08-22T01:52:33.336Z,7.53
2022-08-22T01:56:09.534Z,6.77
2022-08-22T01:59:25.383Z,7.87
2022-08-22T02:02:55.865Z,8.10
2022-08-22T02:06:14.557Z,7.78
2022-08-22T02:09:34.379Z,7.75
2022-08-22T02:12:46.469Z,7.80
2022-08-22T02:16:20.764Z,7.93
2022-08-22T02:19:38.014Z,6.70
2022-08-22T02:23:11.495Z,5.82
2022-08-22T02:26:28.740Z,6.50
2022-08-22T02:29:50.350Z,6.73
2022-08-22T02:33:10.350Z,5.67
2022-08-22T02:36:28.688Z,6.30
2022-08-22T02:40:05.320Z,6.93
2022-08-22T02:43:27.518Z,5.88
2022-08-22T02:46:47.013Z,5.70
2022-08-22T02:50:12.846Z,3.77
2022-08-22T02:53:36.809Z,2.33
2022-08-22T02:56:53.479Z,2.95
2022-08-22T03:00:02.867Z,3.08
2022-08-22T03:03:19.539Z,2.13
2022-08-22T03:06:34.615Z,2.70
2022-08-22T03:09:54.881Z,1.55
2022-08-22T03:13:08.480Z,2.60
2022-08-22T03:16:20.877Z,2.08
2022-08-22T03:19:30.280Z,3.50
2022-08-22T03:22:57.496Z,3.23
2022-08-22T03:26:17.444Z,1.92
2022-08-22T03:29:29.477Z,2.40
2022-08-22T03:33:16.905Z,2.47
2022-08-22T03:36:25.943Z,2.87
2022-08-22T03:39:50.882Z,2.43
2022-08-22T03:43:37.057Z,2.53
2022-08-22T03:46:52.828Z,2.40
2022-08-22T03:50:24.200Z,2.55
2022-08-22T03:53:41.450Z,1.70
2022-08-22T03:56:58.937Z,2.10
2022-08-22T04:00:36.444Z,1.45
2022-08-22T04:04:10.404Z,0.82
2022-08-22T04:07:33.432Z,1.77
2022-08-22T04:11:24.664Z,1.53
2022-08-22T04:14:39.782Z,1.10
2022-08-22T04:18:07.391Z,1.40
2022-08-22T04:21:54.488Z,3.40
2022-08-22T04:25:07.562Z,1.80
2022-08-22T04:28:16.873Z,2.30
2022-08-22T04:31:27.447Z,1.40
2022-08-22T04:35:07.957Z,2.28
2022-08-22T04:38:33.665Z,2.22
2022-08-22T04:42:31.640Z,2.05
2022-08-22T04:45:46.169Z,2.80
2022-08-22T04:48:59.268Z,2.50
2022-08-22T04:52:18.395Z,2.95
2022-08-22T04:55:33.669Z,2.30
2022-08-22T04:58:51.089Z,2.13
2022-08-22T05:01:59.697Z,2.20
2022-08-22T05:05:15.853Z,2.27
2022-08-22T05:08:25.784Z,2.40
2022-08-22T05:11:30.608Z,2.53
2022-08-22T05:14:43.798Z,2.45
2022-08-22T05:17:49.438Z,2.43
2022-08-22T05:20:55.780Z,1.50
2022-08-22T05:24:10.786Z,2.10
2022-08-22T05:27:26.853Z,1.75
2022-08-22T05:30:32.957Z,1.42
2022-08-22T05:33:49.072Z,1.30
2022-08-22T05:37:31.003Z,2.60
2022-08-22T05:40:37.721Z,2.17
2022-08-22T05:43:43.882Z,1.50
2022-08-22T05:47:01.088Z,0.98
2022-08-22T05:50:30.302Z,2.43
2022-08-22T05:53:41.505Z,2.70
2022-08-22T05:57:12.087Z,2.60
2022-08-22T06:00:22.552Z,1.98
2022-08-22T06:03:32.285Z,0.80
2022-08-22T06:06:49.790Z,0.50
2022-08-22T06:10:08.728Z,0.50
2022-08-22T06:13:32.520Z,0.85
2022-08-22T06:16:48.911Z,0.40
2022-08-22T06:19:54.111Z,1.30
2022-08-22T06:23:00.760Z,0.50
2022-08-22T06:26:05.593Z,1.87
2022-08-22T06:29:51.172Z,1.85
2022-08-22T06:33:07.201Z,0.50
2022-08-22T06:36:32.475Z,1.23
2022-08-22T06:39:40.174Z,0.73
2022-08-22T06:42:50.948Z,1.67
2022-08-22T06:45:58.245Z,0.90
2022-08-22T06:49:03.053Z,1.30
2022-08-22T06:52:18.541Z,0.88
2022-08-22T06:55:23.572Z,0.53
2022-08-22T06:58:34.204Z,1.83
2022-08-22T07:01:53.377Z,1.00
2022-08-22T07:04:57.081Z,1.02
2022-08-22T07:08:07.514Z,0.80
2022-08-22T07:11:25.999Z,1.30
2022-08-22T07:14:42.933Z,2.00
2022-08-22T07:17:59.509Z,1.52
2022-08-22T07:21:04.799Z,0.90
2022-08-22T07:24:09.685Z,1.10
2022-08-22T07:27:45.075Z,1.23
2022-08-22T07:30:54.926Z,1.60
2022-08-22T07:34:23.571Z,1.98
2022-08-22T07:37:37.727Z,1.38
2022-08-22T07:41:06.115Z,1.55
2022-08-22T07:44:23.239Z,2.23
2022-08-22T07:47:37.300Z,1.97
2022-08-22T07:51:08.636Z,1.92
2022-08-22T07:54:39.206Z,1.73
2022-08-22T07:57:47.475Z,1.60
2022-08-22T08:00:51.836Z,1.57
2022-08-22T08:04:07.698Z,3.50
2022-08-22T08:07:14.256Z,2.50
2022-08-22T08:10:25.981Z,1.10
2022-08-22T08:13:35.675Z,2.63
2022-08-22T08:17:10.597Z,2.67
2022-08-22T08:20:17.571Z,1.53
2022-08-22T08:23:23.406Z,3.30
2022-08-22T08:27:06.410Z,3.42
2022-08-22T08:30:20.129Z,1.00
2022-08-22T08:33:28.175Z,2.07
2022-08-22T08:36:37.872Z,2.50
2022-08-22T08:39:51.009Z,2.45
2022-08-22T08:43:29.755Z,2.40
2022-08-22T08:46:41.868Z,2.03
2022-08-22T08:50:03.947Z,1.30
2022-08-22T08:53:19.403Z,2.07
2022-08-22T08:56:37.739Z,2.30
2022-08-22T08:59:53.316Z,1.80
2022-08-22T09:03:12.114Z,2.05
2022-08-22T09:06:42.611Z,1.70
2022-08-22T09:10:13.873Z,1.80
2022-08-22T09:13:25.839Z,1.65
2022-08-22T09:16:51.926Z,0.40
2022-08-22T09:20:15.502Z,1.63
2022-08-22T09:23:37.344Z,0.90
2022-08-22T09:26:48.871Z,1.10
2022-08-22T09:30:05.671Z,2.70
2022-08-22T09:33:21.522Z,1.13
2022-08-22T09:36:53.334Z,1.63
2022-08-22T09:43:45.745Z,1.80
2022-08-22T09:47:24.622Z,0.90
2022-08-22T09:50:46.722Z,0.70
2022-08-22T09:54:13.877Z,1.88
2022-08-22T09:57:23.483Z,0.50
2022-08-22T10:00:36.421Z,0.97
2022-08-22T10:04:04.733Z,0.75
2022-08-22T10:07:31.015Z,0.60
2022-08-22T10:10:57.393Z,1.38
2022-08-22T10:14:22.284Z,0.70
2022-08-22T10:17:41.047Z,0.60
2022-08-22T10:21:02.648Z,1.60
2022-08-22T10:24:25.415Z,0.57
2022-08-22T10:27:43.995Z,0.80
2022-08-22T10:31:23.649Z,0.80
2022-08-22T10:34:36.748Z,0.80
2022-08-22T10:37:57.318Z,1.92
2022-08-22T10:41:26.079Z,0.57
2022-08-22T10:44:48.789Z,1.50
2022-08-22T10:47:54.928Z,1.73
2022-08-22T10:51:09.981Z,0.90
2022-08-22T10:54:39.576Z,0.55
2022-08-22T10:58:10.840Z,0.88
2022-08-22T11:01:37.439Z,1.13
2022-08-22T11:05:25.344Z,1.70
2022-08-22T11:08:57.706Z,1.73
2022-08-22T11:12:37.395Z,0.70
2022-08-22T11:16:23.753Z,0.68
2022-08-22T11:19:44.837Z,0.77
2022-08-22T11:23:19.675Z,0.70
2022-08-22T11:26:47.478Z,0.67
2022-08-22T11:29:53.876Z,1.77
2022-08-22T11:33:16.239Z,1.27
2022-08-22T11:36:26.132Z,0.60
2022-08-22T11:40:19.301Z,1.13
2022-08-22T11:43:37.142Z,1.00
2022-08-22T11:46:46.737Z,0.68
2022-08-22T11:49:57.458Z,0.52
2022-08-22T11:53:18.575Z,1.48
2022-08-22T11:56:40.113Z,1.47
2022-08-22T12:00:13.002Z,0.90
2022-08-22T12:03:23.174Z,0.90
2022-08-22T12:06:45.501Z,1.40
2022-08-22T12:09:59.512Z,1.38
2022-08-22T12:13:18.871Z,0.50
2022-08-22T12:17:02.389Z,0.50
2022-08-22T12:20:32.334Z,2.03
2022-08-22T12:23:50.613Z,0.85
2022-08-22T12:27:28.718Z,1.02
2022-08-22T12:30:55.746Z,1.40
2022-08-22T12:34:07.702Z,1.47
2022-08-22T12:37:21.771Z,1.70
2022-08-22T12:40:44.204Z,0.80
2022-08-22T12:44:25.987Z,1.27
2022-08-22T12:47:49.425Z,0.63
2022-08-22T12:50:57.478Z,0.60
2022-08-22T12:54:14.505Z,0.70
2022-08-22T12:57:34.900Z,0.80
2022-08-22T13:00:45.051Z,1.23
2022-08-22T13:03:56.523Z,0.60
2022-08-22T13:07:06.514Z,2.40
2022-08-22T13:10:17.357Z,1.23
2022-08-22T13:13:37.159Z,0.63
2022-08-22T13:16:49.053Z,1.00
2022-08-22T13:20:11.734Z,1.20
2022-08-22T13:23:24.411Z,3.50
2022-08-22T13:26:33.459Z,2.20
2022-08-22T13:30:01.992Z,2.90
2022-08-22T13:33:15.710Z,1.38
2022-08-22T13:36:22.115Z,3.30
2022-08-22T13:39:32.813Z,1.10
2022-08-22T13:42:45.521Z,1.65
2022-08-22T13:45:58.494Z,0.85
2022-08-22T13:49:12.653Z,2.05
2022-08-22T13:52:38.171Z,3.27
2022-08-22T13:55:51.828Z,1.53
2022-08-22T13:59:01.749Z,1.95
2022-08-22T14:02:18.093Z,1.25
2022-08-22T14:05:44.535Z,1.20
2022-08-22T14:08:49.004Z,2.93
2022-08-22T14:12:04.338Z,0.80
2022-08-22T14:15:11.053Z,0.70
2022-08-22T14:18:30.339Z,1.60
2022-08-22T14:21:51.548Z,0.95
2022-08-22T14:24:58.204Z,1.27
2022-08-22T14:28:28.670Z,1.47
2022-08-22T14:31:32.494Z,1.50
2022-08-22T14:34:42.724Z,1.55
2022-08-22T14:37:54.375Z,1.30
2022-08-22T14:41:05.434Z,1.20
2022-08-22T14:44:17.301Z,1.10
2022-08-22T14:48:29.340Z,2.33
2022-08-22T14:51:29.452Z,1.40
2022-08-22T14:54:34.434Z,2.00
2022-08-22T14:57:46.769Z,1.63
2022-08-22T15:00:54.635Z,1.00
2022-08-22T15:04:11.130Z,0.80
2022-08-22T15:07:33.763Z,0.90
2022-08-22T15:10:42.219Z,1.00
2022-08-22T15:14:21.343Z,0.80
2022-08-22T15:17:44.848Z,1.43
2022-08-22T15:21:08.948Z,3.65
2022-08-22T15:24:14.684Z,1.13
2022-08-22T15:27:22.438Z,1.40
2022-08-22T15:30:44.395Z,1.10
2022-08-22T15:33:49.494Z,1.30
2022-08-22T15:37:18.974Z,1.50
2022-08-22T15:40:36.645Z,1.50
2022-08-22T15:43:50.752Z,2.78
2022-08-22T15:46:59.064Z,1.00
2022-08-22T15:50:15.937Z,0.97
2022-08-22T15:53:33.575Z,2.25
2022-08-22T15:57:02.069Z,2.03
2022-08-22T16:00:35.099Z,1.50
2022-08-22T16:03:42.448Z,2.10
2022-08-22T16:06:56.562Z,3.20
2022-08-22T16:10:01.255Z,3.35
2022-08-22T16:13:39.491Z,2.67
2022-08-22T16:16:42.747Z,1.38
2022-08-22T16:19:45.993Z,2.17
2022-08-22T16:22:58.400Z,1.30
2022-08-22T16:26:06.600Z,1.25
2022-08-22T16:29:17.512Z,1.20
2022-08-22T16:32:28.235Z,2.78
2022-08-22T16:36:08.707Z,1.53
2022-08-22T16:39:21.337Z,1.60
2022-08-22T16:42:28.000Z,2.40
2022-08-22T16:45:36.708Z,2.38
2022-08-22T16:48:40.114Z,1.17
2022-08-22T16:52:20.851Z,1.30
2022-08-22T16:55:30.088Z,1.63
2022-08-22T16:59:22.487Z,1.00
2022-08-22T17:02:57.958Z,1.00
2022-08-22T17:06:20.693Z,1.90
2022-08-22T17:09:38.655Z,2.33
2022-08-22T17:12:54.073Z,2.03
2022-08-22T17:16:38.893Z,1.20
2022-08-22T17:19:57.151Z,1.92
2022-08-22T17:23:15.240Z,1.80
2022-08-22T17:26:45.732Z,1.87
2022-08-22T17:30:13.549Z,1.77
2022-08-22T17:33:51.765Z,1.70
2022-08-22T17:37:31.220Z,1.83
2022-08-22T17:40:57.100Z,2.15
2022-08-22T17:44:35.396Z,2.40
2022-08-22T17:47:44.377Z,1.30
2022-08-22T17:51:11.949Z,1.60
2022-08-22T17:54:28.270Z,2.03
2022-08-22T17:58:03.931Z,1.42
2022-08-22T18:01:32.553Z,2.67
2022-08-22T18:05:02.938Z,1.67
2022-08-22T18:09:12.882Z,2.40
2022-08-22T18:12:15.580Z,1.88
2022-08-22T18:15:38.502Z,2.50
2022-08-22T18:18:53.350Z,1.90
2022-08-22T18:22:22.911Z,2.37
2022-08-22T18:25:46.025Z,2.20
2022-08-22T18:29:04.270Z,2.25
2022-08-22T18:32:41.955Z,3.63
2022-08-22T18:36:01.480Z,2.63
2022-08-22T18:39:14.668Z,2.13
2022-08-22T18:42:30.278Z,2.20
2022-08-22T18:46:04.961Z,2.63
2022-08-22T18:49:20.339Z,2.40
2022-08-22T18:52:26.304Z,2.83
2022-08-22T18:55:56.111Z,4.40
2022-08-22T18:59:34.408Z,2.83
2022-08-22T19:03:22.144Z,2.70
2022-08-22T19:06:43.550Z,3.20
2022-08-22T19:09:57.833Z,3.10
2022-08-22T19:13:14.743Z,2.90
2022-08-22T19:16:51.834Z,2.78
2022-08-22T19:20:22.256Z,3.50
2022-08-22T19:23:40.402Z,3.58
2022-08-22T19:26:47.732Z,4.20
2022-08-22T19:29:55.076Z,3.77
2022-08-22T19:33:10.311Z,3.63
2022-08-22T19:36:30.834Z,3.90
2022-08-22T19:39:43.293Z,4.22
2022-08-22T19:42:49.939Z,3.47
2022-08-22T19:45:55.400Z,2.87
2022-08-22T19:48:58.993Z,4.05
2022-08-22T19:52:23.568Z,3.40
2022-08-22T19:55:38.775Z,3.67
2022-08-22T19:58:56.226Z,3.43
2022-08-22T20:02:16.937Z,3.00
2022-08-22T20:05:27.782Z,3.40
2022-08-22T20:08:55.247Z,4.10
2022-08-22T20:12:13.271Z,4.05
2022-08-22T20:15:24.976Z,3.73
2022-08-22T20:19:05.133Z,3.63
2022-08-22T20:22:30.823Z,3.95
2022-08-22T20:25:50.175Z,3.75
2022-08-22T20:28:54.228Z,3.60
2022-08-22T20:31:59.117Z,3.77
2022-08-22T20:35:04.645Z,4.40
2022-08-22T20:38:22.176Z,4.93
2022-08-22T20:41:39.733Z,4.30
2022-08-22T20:44:53.225Z,4.38
2022-08-22T20:47:57.163Z,5.07
2022-08-22T20:51:06.865Z,4.73
2022-08-22T20:54:24.099Z,5.50
2022-08-22T20:57:27.969Z,5.50
2022-08-22T21:00:35.964Z,4.70
2022-08-22T21:03:46.068Z,4.63
2022-08-22T21:07:00.114Z,4.27
2022-08-22T21:10:49.167Z,3.92
2022-08-22T21:13:53.444Z,4.20
2022-08-22T21:16:56.832Z,3.67
2022-08-22T21:20:18.351Z,4.47
2022-08-22T21:23:21.832Z,4.30
2022-08-22T21:26:51.495Z,4.57
2022-08-22T21:29:55.128Z,4.00
2022-08-22T21:32:58.489Z,4.15
2022-08-22T21:36:01.744Z,4.50
2022-08-22T21:39:17.229Z,4.43
2022-08-22T21:42:41.463Z,4.60
2022-08-22T21:45:47.423Z,4.40
2022-08-22T21:49:02.927Z,4.20
2022-08-22T21:52:06.128Z,4.30
2022-08-22T21:55:27.316Z,4.07
2022-08-22T21:58:36.749Z,4.15
2022-08-22T22:01:42.643Z,4.45
2022-08-22T22:04:45.974Z,4.28
2022-08-22T22:07:49.224Z,4.30
2022-08-22T22:10:56.036Z,4.73
2022-08-22T22:13:59.449Z,4.15
2022-08-22T22:17:02.612Z,4.30
2022-08-22T22:20:06.972Z,4.80
2022-08-22T22:23:10.503Z,4.40
2022-08-22T22:26:14.068Z,5.10
2022-08-22T22:29:20.212Z,5.18
2022-08-22T22:32:23.441Z,4.95
2022-08-22T22:35:26.801Z,4.95
2022-08-22T22:38:30.040Z,5.00
2022-08-22T22:41:33.713Z,5.20
2022-08-22T22:44:36.988Z,5.80
2022-08-22T22:47:40.159Z,5.18
2022-08-22T22:50:44.180Z,5.63
2022-08-22T22:53:47.469Z,5.37
2022-08-22T22:56:50.668Z,5.30
2022-08-22T22:59:53.852Z,5.75
2022-08-22T23:02:58.348Z,5.63
2022-08-22T23:06:01.620Z,5.85
2022-08-22T23:09:05.084Z,5.70
2022-08-22T23:12:14.759Z,5.43
2022-08-22T23:15:17.999Z,4.90
2022-08-22T23:18:21.310Z,5.40
2022-08-22T23:21:33.977Z,5.18
2022-08-22T23:24:39.110Z,4.60
2022-08-22T23:27:42.416Z,5.37
2022-08-22T23:30:45.581Z,5.38
2022-08-22T23:33:48.703Z,4.13
2022-08-22T23:36:55.317Z,5.20
2022-08-22T23:39:58.556Z,6.33
2022-08-22T23:43:01.843Z,5.80
2022-08-22T23:46:05.164Z,5.63
2022-08-22T23:49:08.550Z,5.55
2022-08-22T23:52:13.039Z,5.22
2022-08-22T23:55:16.348Z,5.90
2022-08-22T23:58:19.600Z,5.47
